Norwegian Pearl — C6VG7 — position and weather

sailwx.info

Track history (hours):
 
Tides and Currents Weather Stations Pressure Air Temp Water Temp Dewpoint Dewpoint Depression Visibility Wind Speed Wind Dir Waves Ship Positions

Norwegian Pearl

Last reported at 2017-Jul-22 16:31 UTC. Time now 2017-Jul-22 16:56 UTC.
Position N 49°29' W 127°10'.

Type: Ship. MMSI: 309653000.

Date/timePositionNaut miles runAvg speedWind from/ knotsBaromVisibWave heightAir tempDewpointWater temp
2017-Jul-22 16:31N 49°29' W 127°10'1224.1
2017-Jul-22 16:00N 49°38' W 127°23'4249.1
2017-Jul-22 16:00N 49°36' W 127°18'2121.4 180 / 81021.0 1.1 14.0 15.0
2017-Jul-22 15:00N 49°54' W 127°36'2626.4 180 / 41020.4 1.1 14.0 15.0
2017-Jul-22 14:00N 50°12' W 128°06'2019.6 220 / 141019.2 1.1 12.7 14.0
2017-Jul-22 13:00N 50°30' W 128°18'842.8 170 / 121018.0 2.2 12.4 13.0
2017-Jul-22 12:48N 50°37' W 128°25'921.8
2017-Jul-22 12:22N 50°46' W 128°30'822.7
2017-Jul-22 12:00N 50°54' W 128°34'6417.5
2017-Jul-22 12:00N 50°48' W 128°30'1735.7 210 / 201016.0 2.2 12.5 13.0
2017-Jul-22 11:30N 51°02' W 128°47'1122.6
2017-Jul-22 11:01N 51°11' W 128°57'7438.3
2017-Jul-22 11:00N 51°06' W 128°48'1938.9 220 / 151014.0 5.4 14.0 12.0
2017-Jul-22 10:30N 51°21' W 129°06'1122.7
2017-Jul-22 10:00N 51°31' W 129°16'3248.8
2017-Jul-22 10:00N 51°30' W 129°12'1327.1 220 / 211013.7 2.2 12.9 15.0
2017-Jul-22 09:30N 51°40' W 129°26'1122.3
2017-Jul-22 09:00N 51°50' W 129°34'3797.0
2017-Jul-22 09:00N 51°48' W 129°30'1919.5 160 / 321012.7 2.2 13.1 15.0
2017-Jul-22 08:00N 52°06' W 129°42'2121.1 140 / 351011.6 1.1 14.0 13.0
2017-Jul-22 07:00N 52°24' W 130°00'1919.4 140 / 371011.6 1.1 14.0 13.0
2017-Jul-22 06:00N 52°42' W 130°12'2525.1 130 / 371011.4 1.1 14.0 13.0
2017-Jul-22 05:00N 53°06' W 130°24'1414.0 120 / 331011.1 1.1 14.0 13.0
2017-Jul-22 04:00N 53°18' W 130°36'3231.8 120 / 331011.3 1.1 14.0 13.0
2017-Jul-22 03:00N 53°48' W 130°54'1818.3 120 / 371012.1 1.1 12.8 13.0
2017-Jul-22 02:00N 54°06' W 131°00'6020.0 110 / 281012.7 2.2 12.8 14.0
2017-Jul-21 23:00N 55°06' W 131°06'21 2.6 070 / 41014.5 2.2 13.8 16.0
2017-Jul-21 15:00N 55°18' W 131°36'4010.1 060 / 81015.0 5.4 14.0 11.0
2017-Jul-21 11:00N 55°48' W 132°24'1615.7 150 / 121015.9 12.1 14.0
2017-Jul-21 10:00N 56°00' W 132°42'5413.5 130 / 141015.8 12.4 14.0
2017-Jul-21 06:00N 56°06' W 134°18'2424.2 120 / 91015.6 5.4 13.0 13.0
2017-Jul-21 05:00N 56°30' W 134°24'2524.9 100 / 41015.6 5.4 13.0 11.0
2017-Jul-21 04:00N 56°54' W 134°36'1818.3 140 / 171015.6 5.4 13.0 11.0
2017-Jul-21 03:00N 57°12' W 134°42'8484.0 150 / 161015.6 5.4 13.8 13.0
2017-Jul-21 02:00N 58°36' W 134°42'1818.3 140 / 161015.4 5.4 13.6 13.0
2017-Jul-21 01:00N 58°54' W 134°48'4414.8 170 / 81015.7 5.4 14.0 14.0
2017-Jul-20 22:00N 58°36' W 136°06'28 9.4 300 / 81015.2 5.4 13.0 7.0
2017-Jul-20 19:00N 58°54' W 136°48'3 3.1 320 / 31015.2 5.4 15.0 7.0
2017-Jul-20 18:00N 58°54' W 136°54'58 3.8 320 / 31015.3 5.4 15.0 7.0
2017-Jul-20 03:00N 59°24' W 135°18'0 0.0 190 / 181015.0 5.4 16.0 12.0
2017-Jul-20 02:00N 59°24' W 135°18'0 0.0 190 / 221015.0 5.4 16.0 12.0
2017-Jul-19 23:00N 59°24' W 135°18'0 0.0 180 / 221015.0 5.4 16.0 12.0
2017-Jul-19 22:00N 59°24' W 135°18'0 0.0 200 / 191015.0 5.4 16.0 11.0
2017-Jul-19 21:00N 59°24' W 135°18'0 0.0 200 / 201015.0 5.4 16.0 12.0
2017-Jul-19 19:00N 59°24' W 135°18'0 0.0 190 / 221015.0 5.4 17.0 12.0
2017-Jul-19 17:00N 59°24' W 135°18'37 6.1 180 / 171015.0 5.4 16.0 12.0
2017-Jul-19 11:00N 58°48' W 135°06'7 6.8 160 / 141016.3 2.2 12.8 14.0
2017-Jul-19 10:00N 58°42' W 135°00'1919.1 130 / 81016.8 5.4 12.7 13.0
2017-Jul-19 09:00N 58°24' W 134°48'20 4.0 160 / 121017.0 5.4 12.0 13.0
2017-Jul-19 04:00N 58°12' W 134°18'3 1.6 090 / 91017.0 14.0 12.0
2017-Jul-19 02:00N 58°12' W 134°24'0 0.0 250 / 21017.0 14.0 12.0
2017-Jul-18 23:00N 58°12' W 134°24'37 9.3 270 / 31018.0 5.4 14.0 11.0
2017-Jul-18 19:00N 57°42' W 133°42'1818.3 250 / 21019.2 5.4 11.5 12.0
2017-Jul-18 18:00N 57°24' W 133°48'1212.4 140 / 31019.2 5.4 11.5 12.0
2017-Jul-18 17:00N 57°12' W 133°54'4120.5 170 / 91019.2 5.4 15.0 12.0
2017-Jul-18 15:00N 56°36' W 134°30'1818.0 320 / 91020.2 5.4 11.3 12.0
2017-Jul-18 14:00N 56°18' W 134°30'2424.2 310 / 71020.6 5.4 10.7 12.0
2017-Jul-18 13:00N 55°54' W 134°24'3718.3 310 / 121020.8 5.4 10.9 12.0
2017-Jul-18 11:00N 55°18' W 134°12'1919.3 290 / 131021.6 5.4 12.1 14.0
2017-Jul-18 10:00N 55°00' W 134°00'1818.3 290 / 141022.110.8 12.2 14.0
2017-Jul-18 09:00N 54°42' W 133°54'4422.1 290 / 101022.510.8 11.8 14.0
2017-Jul-18 07:00N 54°00' W 133°30'1919.3 310 / 131022.8 5.4 14.0 14.0
2017-Jul-18 06:00N 53°42' W 133°18'1919.4 320 / 101022.8 5.4 14.0 14.0
2017-Jul-18 05:00N 53°24' W 133°06'2121.0 340 / 151022.4 5.4 14.0 14.0
2017-Jul-18 04:00N 53°06' W 132°48'7135.7 210 / 171022.4 5.4 14.0 14.0
2017-Jul-18 02:00N 52°30' W 131°06'2828.3 310 / 141022.7 5.4 13.2 15.0
2017-Jul-18 01:00N 52°18' W 131°48'1616.3 320 / 151022.9 5.4 13.8 15.0
2017-Jul-18 00:00N 52°06' W 131°30'6321.0 320 / 191022.9 5.4 13.8 15.0
2017-Jul-17 21:00N 51°18' W 130°24'2323.5 330 / 81023.010.8 13.8 16.0
2017-Jul-17 20:00N 51°00' W 130°00'3919.3 350 / 91023.4 5.4 13.6 16.0
2017-Jul-17 18:00N 50°36' W 129°12'2423.6 360 / 111023.0 15.0 15.0
2017-Jul-17 17:00N 50°18' W 128°48'1716.6 360 / 151022.7 5.4 14.0 14.0
2017-Jul-17 16:00N 50°06' W 128°30'1619.2 360 / 151022.4 5.4 13.0 15.0
2017-Jul-17 15:10N 49°56' W 128°10'320.2
2017-Jul-17 15:00N 49°54' W 128°07'041.8
2017-Jul-17 15:00N 49°54' W 128°06'1019.7 350 / 211022.0 5.4 13.0 15.0
2017-Jul-17 14:30N 49°47' W 127°55'1019.5
2017-Jul-17 14:00N 49°41' W 127°44'2176.7
2017-Jul-17 14:00N 49°42' W 127°42'1220.1 340 / 191021.6 5.4 12.5 15.0
2017-Jul-17 13:24N 49°32' W 127°31'1229.4
2017-Jul-17 13:00N 49°24' W 127°18'612.1 320 / 151021.7 5.4 12.5 15.0
2017-Jul-17 12:32N 49°20' W 127°11'319.9
2017-Jul-17 12:23N 49°19' W 127°08'820.3
2017-Jul-17 12:00N 49°15' W 126°58'1020.5
2017-Jul-17 11:30N 49°09' W 126°44'1020.7
2017-Jul-17 11:00N 49°04' W 126°31'1021.0
2017-Jul-17 10:31N 48°58' W 126°18'1020.9
2017-Jul-17 10:01N 48°53' W 126°04'5313.8
2017-Jul-17 10:00N 48°48' W 126°00'612.5 310 / 201022.010.8 13.0 12.0
2017-Jul-17 09:30N 48°47' W 125°51'1020.5
2017-Jul-17 09:00N 48°41' W 125°38'1020.3
2017-Jul-17 08:31N 48°36' W 125°25'1020.8
2017-Jul-17 08:01N 48°32' W 125°10'1121.6
2017-Jul-17 07:31N 48°32' W 124°54'1121.4
2017-Jul-17 07:00N 48°30' W 124°38'1121.1
2017-Jul-17 06:31N 48°26' W 124°23'1020.7
2017-Jul-17 06:00N 48°22' W 124°09'422753.9
2017-Jul-17 06:00N 48°18' W 123°06'3367.3 260 / 151022.8 5.4 13.0 12.0
2017-Jul-17 05:30N 48°18' W 123°55'1020.2
2017-Jul-17 05:00N 48°16' W 123°40'4488.0
2017-Jul-17 05:00N 48°12' W 123°42'1122.6 270 / 171022.3 5.4 14.0 12.0
2017-Jul-17 04:31N 48°14' W 123°26'612.0
2017-Jul-17 04:00N 48°09' W 123°22'4247.1
2017-Jul-17 04:00N 48°06' W 123°18'715.2 250 / 281022.3 5.4 14.0 12.0
2017-Jul-17 03:30N 48°11' W 123°11'1019.3
2017-Jul-17 03:00N 48°12' W 122°56'3224.9
2017-Jul-17 03:00N 48°12' W 123°00'1223.8 260 / 281022.3 5.4 14.0 12.0
2017-Jul-17 02:30N 48°09' W 122°43'1018.9
2017-Jul-17 02:00N 48°01' W 122°37'1019.7
2017-Jul-17 01:30N 47°53' W 122°28'1020.5
2017-Jul-17 01:00N 47°43' W 122°27'713.2
2017-Jul-17 00:31N 47°37' W 122°22'1 1.8
2017-Jul-16 23:59N 47°37' W 122°21'0 0.0
2017-Jul-16 23:29N 47°37' W 122°21'0 0.0
2017-Jul-16 23:00N 47°37' W 122°21'0 0.0
2017-Jul-16 22:30N 47°37' W 122°21'0 0.0
2017-Jul-16 21:59N 47°37' W 122°21'0 0.0
2017-Jul-16 21:30N 47°37' W 122°21'2 4.3
2017-Jul-16 21:00N 47°36' W 122°18'22610.6 270 / 81024.8 22.0 12.0
2017-Jul-16 20:59N 47°37' W 122°21'0 0.0
2017-Jul-16 20:30N 47°37' W 122°21'0 0.0
2017-Jul-16 20:00N 47°37' W 122°21'2244.7
2017-Jul-16 20:00N 47°36' W 122°18'2 3.9 260 / 61025.010.8 15.0 12.0
2017-Jul-16 19:26N 47°37' W 122°21'2 4.9
2017-Jul-16 19:00N 47°36' W 122°18'2223.8 250 / 91025.010.8 14.0 12.0
2017-Jul-16 18:59N 47°37' W 122°21'0 0.0
2017-Jul-16 18:29N 47°37' W 122°21'2 4.4
2017-Jul-16 18:00N 47°36' W 122°18'2217.5 220 / 101025.0 5.4 17.0 12.0
2017-Jul-16 17:59N 47°37' W 122°21'0 0.0
2017-Jul-16 17:29N 47°37' W 122°21'2 4.4
2017-Jul-16 17:00N 47°36' W 122°18'2223.8 170 / 71025.0 5.4 17.0 12.0
2017-Jul-16 16:59N 47°37' W 122°21'0 0.0
2017-Jul-16 16:26N 47°37' W 122°21'0 0.0
2017-Jul-16 15:59N 47°37' W 122°21'0 0.0
2017-Jul-16 15:30N 47°37' W 122°21'0 0.0
2017-Jul-16 14:59N 47°37' W 122°21'0 0.0
2017-Jul-16 14:29N 47°37' W 122°21'0 0.0
2017-Jul-16 14:00N 47°37' W 122°21'0 0.0
2017-Jul-16 13:31N 47°37' W 122°21'0 0.6
2017-Jul-16 13:00N 47°36' W 122°21'3 6.3
2017-Jul-16 12:30N 47°37' W 122°25'510.5
2017-Jul-16 12:00N 47°43' W 122°28'714.9
2017-Jul-16 11:30N 47°50' W 122°28'714.3
2017-Jul-16 11:00N 47°56' W 122°33'815.4
2017-Jul-16 10:30N 48°03' W 122°39'816.1
2017-Jul-16 10:00N 48°10' W 122°46'5441.2
2017-Jul-16 10:00N 48°06' W 122°42'1327.3 260 / 191023.7 5.4 13.0 12.0
2017-Jul-16 09:30N 48°12' W 122°60'1019.6
2017-Jul-16 09:00N 48°11' W 123°14'714.6
2017-Jul-16 08:30N 48°10' W 123°25'917.3
2017-Jul-16 08:00N 48°19' W 123°27'611.8
2017-Jul-16 07:31N 48°24' W 123°24'1 2.1
2017-Jul-16 07:00N 48°25' W 123°23'0 0.0
2017-Jul-16 06:30N 48°25' W 123°23'0 0.0
2017-Jul-16 06:00N 48°25' W 123°23'4340.6
2017-Jul-16 06:00N 48°24' W 123°18'4 7.5 270 / 191022.0 5.4 17.0 13.0
2017-Jul-16 05:30N 48°25' W 123°23'0 0.0
2017-Jul-16 05:00N 48°25' W 123°23'0 0.0
2017-Jul-16 04:30N 48°25' W 123°23'0 0.0
2017-Jul-16 04:00N 48°25' W 123°23'4340.6
2017-Jul-16 04:00N 48°24' W 123°18'4 7.5 270 / 191022.0 5.4 17.0 13.0
2017-Jul-16 03:30N 48°25' W 123°23'0 0.0
2017-Jul-16 03:00N 48°25' W 123°23'0 0.0
2017-Jul-16 02:30N 48°25' W 123°23'0 0.0
2017-Jul-16 02:00N 48°25' W 123°23'0 0.0
2017-Jul-16 01:30N 48°25' W 123°23'0 0.0
2017-Jul-16 01:00N 48°25' W 123°23'0 0.0
2017-Jul-16 00:30N 48°25' W 123°23'3 6.4
2017-Jul-16 00:00N 48°22' W 123°24'714.7
2017-Jul-15 23:31N 48°15' W 123°27'1020.1
2017-Jul-15 23:00N 48°13' W 123°42'1121.3
2017-Jul-15 22:31N 48°14' W 123°58'1122.2
2017-Jul-15 22:00N 48°19' W 124°13'182.2
2017-Jul-15 22:00N 48°18' W 124°12'1224.8 310 / 71024.5 5.4 13.1 13.0
2017-Jul-15 21:31N 48°23' W 124°28'1121.5
2017-Jul-15 21:01N 48°28' W 124°43'6360.9
2017-Jul-15 21:00N 48°24' W 124°36'1633.0 220 / 141024.6 5.4 13.7 13.0
2017-Jul-15 20:31N 48°28' W 124°59'1121.2
2017-Jul-15 20:01N 48°31' W 125°15'2119.9
2017-Jul-15 20:00N 48°30' W 125°12'1327.3 290 / 51024.410.8 14.2 13.0
2017-Jul-15 19:31N 48°37' W 125°29'1122.9
2017-Jul-15 19:01N 48°43' W 125°43'1122.6
2017-Jul-15 18:30N 48°50' W 125°57'1122.4
2017-Jul-15 18:00N 48°57' W 126°11'4262.9
2017-Jul-15 18:00N 48°54' W 126°06'1632.2 220 / 141023.2 5.4 15.0 16.0
2017-Jul-15 17:31N 49°03' W 126°25'1223.0
2017-Jul-15 17:00N 49°10' W 126°40'7454.7
2017-Jul-15 17:00N 49°06' W 126°30'1939.1 210 / 131022.8 5.4 13.0 14.0
2017-Jul-15 16:31N 49°18' W 126°53'1223.4
2017-Jul-15 16:00N 49°26' W 127°05'1323.3
2017-Jul-15 15:28N 49°36' W 127°18'4 7.9
2017-Jul-15 15:00N 49°36' W 127°24'3529.8 190 / 141020.0 5.4 13.0 14.0
2017-Jul-15 13:49N 50°04' W 127°57'721.7
2017-Jul-15 13:30N 50°10' W 128°02'1122.0
2017-Jul-15 13:00N 50°20' W 128°09'3177.6
2017-Jul-15 13:00N 50°18' W 128°06'2025.9 150 / 231018.1 5.4 12.2 14.0
2017-Jul-15 12:13N 50°35' W 128°23'521.8
2017-Jul-15 12:00N 50°39' W 128°26'3268.3
2017-Jul-15 12:00N 50°36' W 128°24'1429.8 140 / 231017.5 5.4 11.7 15.0
2017-Jul-15 11:30N 50°50' W 128°32'1121.8
2017-Jul-15 11:00N 50°58' W 128°42'6363.4
2017-Jul-15 11:00N 50°54' W 128°36'1735.1 130 / 151016.9 5.4 11.7 15.0
2017-Jul-15 10:30N 51°07' W 128°53'1122.4
2017-Jul-15 10:01N 51°17' W 129°02'5294.9
2017-Jul-15 10:00N 51°12' W 129°00'1632.9 140 / 241017.2 5.4 12.1 15.0
2017-Jul-15 09:30N 51°26' W 129°12'1122.0
2017-Jul-15 09:00N 51°35' W 129°21'6354.2
2017-Jul-15 09:00N 51°30' W 129°18'1734.8 090 / 101017.6 5.4 12.8 15.0
2017-Jul-15 08:30N 51°45' W 129°30'1122.8
2017-Jul-15 08:00N 51°56' W 129°37'1223.3
2017-Jul-15 07:30N 52°06' W 129°45'1223.5
2017-Jul-15 07:00N 52°17' W 129°52'6553.5
2017-Jul-15 07:00N 52°12' W 129°48'2626.4 040 / 131018.3 5.4 15.0 14.0
2017-Jul-15 06:00N 52°36' W 130°06'1919.4 050 / 61019.1 5.4 15.0 14.0
2017-Jul-15 05:00N 52°54' W 130°18'2121.0 040 / 61019.6 5.4 15.0 14.0
2017-Jul-15 04:00N 53°12' W 130°36'2525.0 060 / 61019.9 5.4 15.0 14.0
2017-Jul-15 03:00N 53°36' W 130°48'2525.0 140 / 61020.4 5.4 12.7 14.0
2017-Jul-15 02:00N 54°00' W 131°00'2525.0 160 / 61020.8 5.4 12.9 13.0
2017-Jul-15 01:00N 54°24' W 131°12'5427.1 160 / 81021.2 5.4 12.6 13.0
2017-Jul-14 23:00N 55°18' W 131°06'17 4.3 220 / 41021.6 5.4 15.3 15.0
2017-Jul-14 19:00N 55°18' W 131°36'0 0.0 1023.0 5.4 13.2 12.0
2017-Jul-14 18:00N 55°18' W 131°36'0 0.0 090 1023.0 5.4 13.2 12.0
2017-Jul-14 16:00N 55°18' W 131°36'56 9.4 110 / 31021.6 5.4 13.2 12.0
2017-Jul-14 10:00N 56°00' W 132°42'6713.4 110 / 161021.6 5.4 13.2 12.0
2017-Jul-14 05:00N 56°30' W 134°30'1818.3 070 / 51020.6 5.4 13.0 12.0
2017-Jul-14 04:00N 56°12' W 134°36'13129.8 230 / 51020.3 5.4 13.0 12.0
2017-Jul-13 23:36N 58°18' W 135°45'323.1
2017-Jul-13 23:29N 58°19' W 135°50'817.7
2017-Jul-13 23:00N 58°25' W 135°59'613.0
2017-Jul-13 22:30N 58°31' W 136°04'1020.0
2017-Jul-13 21:59N 58°41' W 136°11'32 7.9
2017-Jul-13 18:00N 59°00' W 137°00'2510.7 010 / 21015.9 5.4 8.0 13.0
2017-Jul-13 15:41N 58°46' W 136°21'312.8
2017-Jul-13 15:27N 58°44' W 136°16'715.3
2017-Jul-13 15:00N 58°39' W 136°08'816.9
2017-Jul-13 14:30N 58°31' W 136°04'713.2
2017-Jul-13 14:00N 58°25' W 135°57'510.7
2017-Jul-13 13:30N 58°20' W 135°56'510.8
2017-Jul-13 13:01N 58°18' W 135°47'611.8
2017-Jul-13 12:30N 58°16' W 135°36'611.2
2017-Jul-13 12:00N 58°14' W 135°26'611.6
2017-Jul-13 11:27N 58°12' W 135°15'716.1
2017-Jul-13 11:00N 58°06' W 135°06'1212.4 290 / 91015.9 5.4 11.3 13.0
2017-Jul-13 10:00N 58°18' W 135°00'1212.0 200 / 51016.2 5.4 11.7 13.0
2017-Jul-13 09:00N 58°30' W 135°00'3712.2 110 / 151016.1 5.4 11.8 13.0
2017-Jul-13 06:00N 59°06' W 135°12'7 6.7 160 / 101015.4 5.4 15.0 12.0
2017-Jul-13 05:00N 59°12' W 135°18'12 6.0 330 / 71013.9 5.4 19.7 13.0
2017-Jul-13 03:00N 59°24' W 135°18'0 0.0 040 / 51013.7 5.4 20.7 13.0
2017-Jul-12 23:00N 59°24' W 135°18'0 0.0 350 / 101015.010.8 21.0 14.0
2017-Jul-12 22:00N 59°24' W 135°18'0 0.0 030 / 71015.010.8 21.0 12.0
2017-Jul-12 21:00N 59°24' W 135°18'0 0.0 360 / 101015.010.8 20.0 12.0
2017-Jul-12 20:00N 59°24' W 135°18'   360 / 121016.010.8 19.0 12.0
Track history (hours):
 
Tides and Currents Weather Stations Pressure Air Temp Water Temp Dewpoint Dewpoint Depression Visibility Wind Speed Wind Dir Waves Ship Positions

Norwegian Pearl

Last reported at 2017-Jul-22 16:31 UTC. Time now 2017-Jul-22 16:56 UTC.
Position N 49°29' W 127°10'.

Type: Ship. MMSI: 309653000.

Date/timePositionNaut miles runAvg speedWind from/ knotsBaromVisibWave heightAir tempDewpointWater temp
2017-Jul-22 16:31N 49°29' W 127°10'1224.1
2017-Jul-22 16:00N 49°38' W 127°23'4249.1
2017-Jul-22 16:00N 49°36' W 127°18'2121.4 180 / 81021.0 1.1 14.0 15.0
2017-Jul-22 15:00N 49°54' W 127°36'2626.4 180 / 41020.4 1.1 14.0 15.0
2017-Jul-22 14:00N 50°12' W 128°06'2019.6 220 / 141019.2 1.1 12.7 14.0
2017-Jul-22 13:00N 50°30' W 128°18'842.8 170 / 121018.0 2.2 12.4 13.0
2017-Jul-22 12:48N 50°37' W 128°25'921.8
2017-Jul-22 12:22N 50°46' W 128°30'822.7
2017-Jul-22 12:00N 50°54' W 128°34'6417.5
2017-Jul-22 12:00N 50°48' W 128°30'1735.7 210 / 201016.0 2.2 12.5 13.0
2017-Jul-22 11:30N 51°02' W 128°47'1122.6
2017-Jul-22 11:01N 51°11' W 128°57'7438.3
2017-Jul-22 11:00N 51°06' W 128°48'1938.9 220 / 151014.0 5.4 14.0 12.0
2017-Jul-22 10:30N 51°21' W 129°06'1122.7
2017-Jul-22 10:00N 51°31' W 129°16'3248.8
2017-Jul-22 10:00N 51°30' W 129°12'1327.1 220 / 211013.7 2.2 12.9 15.0
2017-Jul-22 09:30N 51°40' W 129°26'1122.3
2017-Jul-22 09:00N 51°50' W 129°34'3797.0
2017-Jul-22 09:00N 51°48' W 129°30'1919.5 160 / 321012.7 2.2 13.1 15.0
2017-Jul-22 08:00N 52°06' W 129°42'2121.1 140 / 351011.6 1.1 14.0 13.0
2017-Jul-22 07:00N 52°24' W 130°00'1919.4 140 / 371011.6 1.1 14.0 13.0
2017-Jul-22 06:00N 52°42' W 130°12'2525.1 130 / 371011.4 1.1 14.0 13.0
2017-Jul-22 05:00N 53°06' W 130°24'1414.0 120 / 331011.1 1.1 14.0 13.0
2017-Jul-22 04:00N 53°18' W 130°36'3231.8 120 / 331011.3 1.1 14.0 13.0
2017-Jul-22 03:00N 53°48' W 130°54'1818.3 120 / 371012.1 1.1 12.8 13.0
2017-Jul-22 02:00N 54°06' W 131°00'6020.0 110 / 281012.7 2.2 12.8 14.0
2017-Jul-21 23:00N 55°06' W 131°06'21 2.6 070 / 41014.5 2.2 13.8 16.0
2017-Jul-21 15:00N 55°18' W 131°36'4010.1 060 / 81015.0 5.4 14.0 11.0
2017-Jul-21 11:00N 55°48' W 132°24'1615.7 150 / 121015.9 12.1 14.0
2017-Jul-21 10:00N 56°00' W 132°42'5413.5 130 / 141015.8 12.4 14.0
2017-Jul-21 06:00N 56°06' W 134°18'2424.2 120 / 91015.6 5.4 13.0 13.0
2017-Jul-21 05:00N 56°30' W 134°24'2524.9 100 / 41015.6 5.4 13.0 11.0
2017-Jul-21 04:00N 56°54' W 134°36'1818.3 140 / 171015.6 5.4 13.0 11.0
2017-Jul-21 03:00N 57°12' W 134°42'8484.0 150 / 161015.6 5.4 13.8 13.0
2017-Jul-21 02:00N 58°36' W 134°42'1818.3 140 / 161015.4 5.4 13.6 13.0
2017-Jul-21 01:00N 58°54' W 134°48'4414.8 170 / 81015.7 5.4 14.0 14.0
2017-Jul-20 22:00N 58°36' W 136°06'28 9.4 300 / 81015.2 5.4 13.0 7.0
2017-Jul-20 19:00N 58°54' W 136°48'3 3.1 320 / 31015.2 5.4 15.0 7.0
2017-Jul-20 18:00N 58°54' W 136°54'58 3.8 320 / 31015.3 5.4 15.0 7.0
2017-Jul-20 03:00N 59°24' W 135°18'0 0.0 190 / 181015.0 5.4 16.0 12.0
2017-Jul-20 02:00N 59°24' W 135°18'0 0.0 190 / 221015.0 5.4 16.0 12.0
2017-Jul-19 23:00N 59°24' W 135°18'0 0.0 180 / 221015.0 5.4 16.0 12.0
2017-Jul-19 22:00N 59°24' W 135°18'0 0.0 200 / 191015.0 5.4 16.0 11.0
2017-Jul-19 21:00N 59°24' W 135°18'0 0.0 200 / 201015.0 5.4 16.0 12.0
2017-Jul-19 19:00N 59°24' W 135°18'0 0.0 190 / 221015.0 5.4 17.0 12.0
2017-Jul-19 17:00N 59°24' W 135°18'37 6.1 180 / 171015.0 5.4 16.0 12.0
2017-Jul-19 11:00N 58°48' W 135°06'7 6.8 160 / 141016.3 2.2 12.8 14.0
2017-Jul-19 10:00N 58°42' W 135°00'1919.1 130 / 81016.8 5.4 12.7 13.0
2017-Jul-19 09:00N 58°24' W 134°48'20 4.0 160 / 121017.0 5.4 12.0 13.0
2017-Jul-19 04:00N 58°12' W 134°18'3 1.6 090 / 91017.0 14.0 12.0
2017-Jul-19 02:00N 58°12' W 134°24'0 0.0 250 / 21017.0 14.0 12.0
2017-Jul-18 23:00N 58°12' W 134°24'37 9.3 270 / 31018.0 5.4 14.0 11.0
2017-Jul-18 19:00N 57°42' W 133°42'1818.3 250 / 21019.2 5.4 11.5 12.0
2017-Jul-18 18:00N 57°24' W 133°48'1212.4 140 / 31019.2 5.4 11.5 12.0
2017-Jul-18 17:00N 57°12' W 133°54'4120.5 170 / 91019.2 5.4 15.0 12.0
2017-Jul-18 15:00N 56°36' W 134°30'1818.0 320 / 91020.2 5.4 11.3 12.0
2017-Jul-18 14:00N 56°18' W 134°30'2424.2 310 / 71020.6 5.4 10.7 12.0
2017-Jul-18 13:00N 55°54' W 134°24'3718.3 310 / 121020.8 5.4 10.9 12.0
2017-Jul-18 11:00N 55°18' W 134°12'1919.3 290 / 131021.6 5.4 12.1 14.0
2017-Jul-18 10:00N 55°00' W 134°00'1818.3 290 / 141022.110.8 12.2 14.0
2017-Jul-18 09:00N 54°42' W 133°54'4422.1 290 / 101022.510.8 11.8 14.0
2017-Jul-18 07:00N 54°00' W 133°30'1919.3 310 / 131022.8 5.4 14.0 14.0
2017-Jul-18 06:00N 53°42' W 133°18'1919.4 320 / 101022.8 5.4 14.0 14.0
2017-Jul-18 05:00N 53°24' W 133°06'2121.0 340 / 151022.4 5.4 14.0 14.0
2017-Jul-18 04:00N 53°06' W 132°48'7135.7 210 / 171022.4 5.4 14.0 14.0
2017-Jul-18 02:00N 52°30' W 131°06'2828.3 310 / 141022.7 5.4 13.2 15.0
2017-Jul-18 01:00N 52°18' W 131°48'1616.3 320 / 151022.9 5.4 13.8 15.0
2017-Jul-18 00:00N 52°06' W 131°30'6321.0 320 / 191022.9 5.4 13.8 15.0
2017-Jul-17 21:00N 51°18' W 130°24'2323.5 330 / 81023.010.8 13.8 16.0
2017-Jul-17 20:00N 51°00' W 130°00'3919.3 350 / 91023.4 5.4 13.6 16.0
2017-Jul-17 18:00N 50°36' W 129°12'2423.6 360 / 111023.0 15.0 15.0
2017-Jul-17 17:00N 50°18' W 128°48'1716.6 360 / 151022.7 5.4 14.0 14.0
2017-Jul-17 16:00N 50°06' W 128°30'1619.2 360 / 151022.4 5.4 13.0 15.0
2017-Jul-17 15:10N 49°56' W 128°10'320.2
2017-Jul-17 15:00N 49°54' W 128°07'041.8
2017-Jul-17 15:00N 49°54' W 128°06'1019.7 350 / 211022.0 5.4 13.0 15.0
2017-Jul-17 14:30N 49°47' W 127°55'1019.5
2017-Jul-17 14:00N 49°41' W 127°44'2176.7
2017-Jul-17 14:00N 49°42' W 127°42'1220.1 340 / 191021.6 5.4 12.5 15.0
2017-Jul-17 13:24N 49°32' W 127°31'1229.4
2017-Jul-17 13:00N 49°24' W 127°18'612.1 320 / 151021.7 5.4 12.5 15.0
2017-Jul-17 12:32N 49°20' W 127°11'319.9
2017-Jul-17 12:23N 49°19' W 127°08'820.3
2017-Jul-17 12:00N 49°15' W 126°58'1020.5
2017-Jul-17 11:30N 49°09' W 126°44'1020.7
2017-Jul-17 11:00N 49°04' W 126°31'1021.0
2017-Jul-17 10:31N 48°58' W 126°18'1020.9
2017-Jul-17 10:01N 48°53' W 126°04'5313.8
2017-Jul-17 10:00N 48°48' W 126°00'612.5 310 / 201022.010.8 13.0 12.0
2017-Jul-17 09:30N 48°47' W 125°51'1020.5
2017-Jul-17 09:00N 48°41' W 125°38'1020.3
2017-Jul-17 08:31N 48°36' W 125°25'1020.8
2017-Jul-17 08:01N 48°32' W 125°10'1121.6
2017-Jul-17 07:31N 48°32' W 124°54'1121.4
2017-Jul-17 07:00N 48°30' W 124°38'1121.1
2017-Jul-17 06:31N 48°26' W 124°23'1020.7
2017-Jul-17 06:00N 48°22' W 124°09'422753.9
2017-Jul-17 06:00N 48°18' W 123°06'3367.3 260 / 151022.8 5.4 13.0 12.0
2017-Jul-17 05:30N 48°18' W 123°55'1020.2
2017-Jul-17 05:00N 48°16' W 123°40'4488.0
2017-Jul-17 05:00N 48°12' W 123°42'1122.6 270 / 171022.3 5.4 14.0 12.0
2017-Jul-17 04:31N 48°14' W 123°26'612.0
2017-Jul-17 04:00N 48°09' W 123°22'4247.1
2017-Jul-17 04:00N 48°06' W 123°18'715.2 250 / 281022.3 5.4 14.0 12.0
2017-Jul-17 03:30N 48°11' W 123°11'1019.3
2017-Jul-17 03:00N 48°12' W 122°56'3224.9
2017-Jul-17 03:00N 48°12' W 123°00'1223.8 260 / 281022.3 5.4 14.0 12.0
2017-Jul-17 02:30N 48°09' W 122°43'1018.9
2017-Jul-17 02:00N 48°01' W 122°37'1019.7
2017-Jul-17 01:30N 47°53' W 122°28'1020.5
2017-Jul-17 01:00N 47°43' W 122°27'713.2
2017-Jul-17 00:31N 47°37' W 122°22'1 1.8
2017-Jul-16 23:59N 47°37' W 122°21'0 0.0
2017-Jul-16 23:29N 47°37' W 122°21'0 0.0
2017-Jul-16 23:00N 47°37' W 122°21'0 0.0
2017-Jul-16 22:30N 47°37' W 122°21'0 0.0
2017-Jul-16 21:59N 47°37' W 122°21'0 0.0
2017-Jul-16 21:30N 47°37' W 122°21'2 4.3
2017-Jul-16 21:00N 47°36' W 122°18'22610.6 270 / 81024.8 22.0 12.0
2017-Jul-16 20:59N 47°37' W 122°21'0 0.0
2017-Jul-16 20:30N 47°37' W 122°21'0 0.0
2017-Jul-16 20:00N 47°37' W 122°21'2244.7
2017-Jul-16 20:00N 47°36' W 122°18'2 3.9 260 / 61025.010.8 15.0 12.0
2017-Jul-16 19:26N 47°37' W 122°21'2 4.9
2017-Jul-16 19:00N 47°36' W 122°18'2223.8 250 / 91025.010.8 14.0 12.0
2017-Jul-16 18:59N 47°37' W 122°21'0 0.0
2017-Jul-16 18:29N 47°37' W 122°21'2 4.4
2017-Jul-16 18:00N 47°36' W 122°18'2217.5 220 / 101025.0 5.4 17.0 12.0
2017-Jul-16 17:59N 47°37' W 122°21'0 0.0
2017-Jul-16 17:29N 47°37' W 122°21'2 4.4
2017-Jul-16 17:00N 47°36' W 122°18'2223.8 170 / 71025.0 5.4 17.0 12.0
2017-Jul-16 16:59N 47°37' W 122°21'0 0.0
2017-Jul-16 16:26N 47°37' W 122°21'0 0.0
2017-Jul-16 15:59N 47°37' W 122°21'0 0.0
2017-Jul-16 15:30N 47°37' W 122°21'0 0.0
2017-Jul-16 14:59N 47°37' W 122°21'0 0.0
2017-Jul-16 14:29N 47°37' W 122°21'0 0.0
2017-Jul-16 14:00N 47°37' W 122°21'0 0.0
2017-Jul-16 13:31N 47°37' W 122°21'0 0.6
2017-Jul-16 13:00N 47°36' W 122°21'3 6.3
2017-Jul-16 12:30N 47°37' W 122°25'510.5
2017-Jul-16 12:00N 47°43' W 122°28'714.9
2017-Jul-16 11:30N 47°50' W 122°28'714.3
2017-Jul-16 11:00N 47°56' W 122°33'815.4
2017-Jul-16 10:30N 48°03' W 122°39'816.1
2017-Jul-16 10:00N 48°10' W 122°46'5441.2
2017-Jul-16 10:00N 48°06' W 122°42'1327.3 260 / 191023.7 5.4 13.0 12.0
2017-Jul-16 09:30N 48°12' W 122°60'1019.6
2017-Jul-16 09:00N 48°11' W 123°14'714.6
2017-Jul-16 08:30N 48°10' W 123°25'917.3
2017-Jul-16 08:00N 48°19' W 123°27'611.8
2017-Jul-16 07:31N 48°24' W 123°24'1 2.1
2017-Jul-16 07:00N 48°25' W 123°23'0 0.0
2017-Jul-16 06:30N 48°25' W 123°23'0 0.0
2017-Jul-16 06:00N 48°25' W 123°23'4340.6
2017-Jul-16 06:00N 48°24' W 123°18'4 7.5 270 / 191022.0 5.4 17.0 13.0
2017-Jul-16 05:30N 48°25' W 123°23'0 0.0
2017-Jul-16 05:00N 48°25' W 123°23'0 0.0
2017-Jul-16 04:30N 48°25' W 123°23'0 0.0
2017-Jul-16 04:00N 48°25' W 123°23'4340.6
2017-Jul-16 04:00N 48°24' W 123°18'4 7.5 270 / 191022.0 5.4 17.0 13.0
2017-Jul-16 03:30N 48°25' W 123°23'0 0.0
2017-Jul-16 03:00N 48°25' W 123°23'0 0.0
2017-Jul-16 02:30N 48°25' W 123°23'0 0.0
2017-Jul-16 02:00N 48°25' W 123°23'0 0.0
2017-Jul-16 01:30N 48°25' W 123°23'0 0.0
2017-Jul-16 01:00N 48°25' W 123°23'0 0.0
2017-Jul-16 00:30N 48°25' W 123°23'3 6.4
2017-Jul-16 00:00N 48°22' W 123°24'714.7
2017-Jul-15 23:31N 48°15' W 123°27'1020.1
2017-Jul-15 23:00N 48°13' W 123°42'1121.3
2017-Jul-15 22:31N 48°14' W 123°58'1122.2
2017-Jul-15 22:00N 48°19' W 124°13'182.2
2017-Jul-15 22:00N 48°18' W 124°12'1224.8 310 / 71024.5 5.4 13.1 13.0
2017-Jul-15 21:31N 48°23' W 124°28'1121.5
2017-Jul-15 21:01N 48°28' W 124°43'6360.9
2017-Jul-15 21:00N 48°24' W 124°36'1633.0 220 / 141024.6 5.4 13.7 13.0
2017-Jul-15 20:31N 48°28' W 124°59'1121.2
2017-Jul-15 20:01N 48°31' W 125°15'2119.9
2017-Jul-15 20:00N 48°30' W 125°12'1327.3 290 / 51024.410.8 14.2 13.0
2017-Jul-15 19:31N 48°37' W 125°29'1122.9
2017-Jul-15 19:01N 48°43' W 125°43'1122.6
2017-Jul-15 18:30N 48°50' W 125°57'1122.4
2017-Jul-15 18:00N 48°57' W 126°11'4262.9
2017-Jul-15 18:00N 48°54' W 126°06'1632.2 220 / 141023.2 5.4 15.0 16.0
2017-Jul-15 17:31N 49°03' W 126°25'1223.0
2017-Jul-15 17:00N 49°10' W 126°40'7454.7
2017-Jul-15 17:00N 49°06' W 126°30'1939.1 210 / 131022.8 5.4 13.0 14.0
2017-Jul-15 16:31N 49°18' W 126°53'1223.4
2017-Jul-15 16:00N 49°26' W 127°05'1323.3
2017-Jul-15 15:28N 49°36' W 127°18'4 7.9
2017-Jul-15 15:00N 49°36' W 127°24'3529.8 190 / 141020.0 5.4 13.0 14.0
2017-Jul-15 13:49N 50°04' W 127°57'721.7
2017-Jul-15 13:30N 50°10' W 128°02'1122.0
2017-Jul-15 13:00N 50°20' W 128°09'3177.6
2017-Jul-15 13:00N 50°18' W 128°06'2025.9 150 / 231018.1 5.4 12.2 14.0
2017-Jul-15 12:13N 50°35' W 128°23'521.8
2017-Jul-15 12:00N 50°39' W 128°26'3268.3
2017-Jul-15 12:00N 50°36' W 128°24'1429.8 140 / 231017.5 5.4 11.7 15.0
2017-Jul-15 11:30N 50°50' W 128°32'1121.8
2017-Jul-15 11:00N 50°58' W 128°42'6363.4
2017-Jul-15 11:00N 50°54' W 128°36'1735.1 130 / 151016.9 5.4 11.7 15.0
2017-Jul-15 10:30N 51°07' W 128°53'1122.4
2017-Jul-15 10:01N 51°17' W 129°02'5294.9
2017-Jul-15 10:00N 51°12' W 129°00'1632.9 140 / 241017.2 5.4 12.1 15.0
2017-Jul-15 09:30N 51°26' W 129°12'1122.0
2017-Jul-15 09:00N 51°35' W 129°21'6354.2
2017-Jul-15 09:00N 51°30' W 129°18'1734.8 090 / 101017.6 5.4 12.8 15.0
2017-Jul-15 08:30N 51°45' W 129°30'1122.8
2017-Jul-15 08:00N 51°56' W 129°37'1223.3
2017-Jul-15 07:30N 52°06' W 129°45'1223.5
2017-Jul-15 07:00N 52°17' W 129°52'6553.5
2017-Jul-15 07:00N 52°12' W 129°48'2626.4 040 / 131018.3 5.4 15.0 14.0
2017-Jul-15 06:00N 52°36' W 130°06'1919.4 050 / 61019.1 5.4 15.0 14.0
2017-Jul-15 05:00N 52°54' W 130°18'2121.0 040 / 61019.6 5.4 15.0 14.0
2017-Jul-15 04:00N 53°12' W 130°36'2525.0 060 / 61019.9 5.4 15.0 14.0
2017-Jul-15 03:00N 53°36' W 130°48'2525.0 140 / 61020.4 5.4 12.7 14.0
2017-Jul-15 02:00N 54°00' W 131°00'2525.0 160 / 61020.8 5.4 12.9 13.0
2017-Jul-15 01:00N 54°24' W 131°12'5427.1 160 / 81021.2 5.4 12.6 13.0
2017-Jul-14 23:00N 55°18' W 131°06'17 4.3 220 / 41021.6 5.4 15.3 15.0
2017-Jul-14 19:00N 55°18' W 131°36'0 0.0 1023.0 5.4 13.2 12.0
2017-Jul-14 18:00N 55°18' W 131°36'0 0.0 090 1023.0 5.4 13.2 12.0
2017-Jul-14 16:00N 55°18' W 131°36'56 9.4 110 / 31021.6 5.4 13.2 12.0
2017-Jul-14 10:00N 56°00' W 132°42'6713.4 110 / 161021.6 5.4 13.2 12.0
2017-Jul-14 05:00N 56°30' W 134°30'1818.3 070 / 51020.6 5.4 13.0 12.0
2017-Jul-14 04:00N 56°12' W 134°36'13129.8 230 / 51020.3 5.4 13.0 12.0
2017-Jul-13 23:36N 58°18' W 135°45'323.1
2017-Jul-13 23:29N 58°19' W 135°50'817.7
2017-Jul-13 23:00N 58°25' W 135°59'613.0
2017-Jul-13 22:30N 58°31' W 136°04'1020.0
2017-Jul-13 21:59N 58°41' W 136°11'32 7.9
2017-Jul-13 18:00N 59°00' W 137°00'2510.7 010 / 21015.9 5.4 8.0 13.0
2017-Jul-13 15:41N 58°46' W 136°21'312.8
2017-Jul-13 15:27N 58°44' W 136°16'715.3
2017-Jul-13 15:00N 58°39' W 136°08'816.9
2017-Jul-13 14:30N 58°31' W 136°04'713.2
2017-Jul-13 14:00N 58°25' W 135°57'510.7
2017-Jul-13 13:30N 58°20' W 135°56'510.8
2017-Jul-13 13:01N 58°18' W 135°47'611.8
2017-Jul-13 12:30N 58°16' W 135°36'611.2
2017-Jul-13 12:00N 58°14' W 135°26'611.6
2017-Jul-13 11:27N 58°12' W 135°15'716.1
2017-Jul-13 11:00N 58°06' W 135°06'1212.4 290 / 91015.9 5.4 11.3 13.0
2017-Jul-13 10:00N 58°18' W 135°00'1212.0 200 / 51016.2 5.4 11.7 13.0
2017-Jul-13 09:00N 58°30' W 135°00'3712.2 110 / 151016.1 5.4 11.8 13.0
2017-Jul-13 06:00N 59°06' W 135°12'7 6.7 160 / 101015.4 5.4 15.0 12.0
2017-Jul-13 05:00N 59°12' W 135°18'12 6.0 330 / 71013.9 5.4 19.7 13.0
2017-Jul-13 03:00N 59°24' W 135°18'0 0.0 040 / 51013.7 5.4 20.7 13.0
2017-Jul-12 23:00N 59°24' W 135°18'0 0.0 350 / 101015.010.8 21.0 14.0
2017-Jul-12 22:00N 59°24' W 135°18'0 0.0 030 / 71015.010.8 21.0 12.0
2017-Jul-12 21:00N 59°24' W 135°18'0 0.0 360 / 101015.010.8 20.0 12.0
2017-Jul-12 20:00N 59°24' W 135°18'   360 / 121016.010.8 19.0 12.0

Dump ship's entire track history